sensor_id;sensor_type;location;lat;lon;timestamp;P1;durP1;ratioP1;P2;durP2;ratioP2
7969;SDS011;4030;52.362;9.206;2022-10-31T00:02:10;5.88;;;4.22;;
7969;SDS011;4030;52.362;9.206;2022-10-31T00:04:36;6.53;;;4.30;;
7969;SDS011;4030;52.362;9.206;2022-10-31T00:07:02;7.72;;;4.13;;
7969;SDS011;4030;52.362;9.206;2022-10-31T00:09:28;6.88;;;4.35;;
7969;SDS011;4030;52.362;9.206;2022-10-31T00:11:54;5.50;;;4.30;;
7969;SDS011;4030;52.362;9.206;2022-10-31T00:14:20;5.85;;;4.57;;
7969;SDS011;4030;52.362;9.206;2022-10-31T00:16:46;6.55;;;4.30;;
7969;SDS011;4030;52.362;9.206;2022-10-31T00:19:12;6.47;;;4.45;;
7969;SDS011;4030;52.362;9.206;2022-10-31T00:21:38;6.32;;;4.57;;
7969;SDS011;4030;52.362;9.206;2022-10-31T00:24:04;6.70;;;4.38;;
7969;SDS011;4030;52.362;9.206;2022-10-31T00:26:31;5.93;;;4.20;;
7969;SDS011;4030;52.362;9.206;2022-10-31T00:28:57;6.25;;;4.30;;
7969;SDS011;4030;52.362;9.206;2022-10-31T00:31:24;6.50;;;4.65;;
7969;SDS011;4030;52.362;9.206;2022-10-31T00:33:49;5.85;;;4.38;;
7969;SDS011;4030;52.362;9.206;2022-10-31T00:36:16;5.22;;;4.22;;
7969;SDS011;4030;52.362;9.206;2022-10-31T00:38:44;7.90;;;4.70;;
7969;SDS011;4030;52.362;9.206;2022-10-31T00:41:11;7.03;;;4.70;;
7969;SDS011;4030;52.362;9.206;2022-10-31T00:43:39;6.32;;;4.65;;
7969;SDS011;4030;52.362;9.206;2022-10-31T00:46:05;7.75;;;4.43;;
7969;SDS011;4030;52.362;9.206;2022-10-31T00:48:31;7.15;;;4.30;;
7969;SDS011;4030;52.362;9.206;2022-10-31T00:50:57;7.03;;;4.95;;
7969;SDS011;4030;52.362;9.206;2022-10-31T00:53:23;7.22;;;4.90;;
7969;SDS011;4030;52.362;9.206;2022-10-31T00:55:50;6.68;;;4.78;;
7969;SDS011;4030;52.362;9.206;2022-10-31T00:58:15;7.40;;;4.53;;
7969;SDS011;4030;52.362;9.206;2022-10-31T01:00:41;6.97;;;4.82;;
7969;SDS011;4030;52.362;9.206;2022-10-31T01:03:07;8.20;;;4.88;;
7969;SDS011;4030;52.362;9.206;2022-10-31T01:05:33;5.90;;;4.65;;
7969;SDS011;4030;52.362;9.206;2022-10-31T01:08:00;5.38;;;4.25;;
7969;SDS011;4030;52.362;9.206;2022-10-31T01:10:25;7.82;;;4.50;;
7969;SDS011;4030;52.362;9.206;2022-10-31T01:12:51;9.38;;;5.13;;
7969;SDS011;4030;52.362;9.206;2022-10-31T01:15:19;6.43;;;4.63;;
7969;SDS011;4030;52.362;9.206;2022-10-31T01:17:47;6.60;;;4.60;;
7969;SDS011;4030;52.362;9.206;2022-10-31T01:20:14;7.72;;;5.28;;
7969;SDS011;4030;52.362;9.206;2022-10-31T01:22:41;7.03;;;4.78;;
7969;SDS011;4030;52.362;9.206;2022-10-31T01:25:07;6.13;;;4.57;;
7969;SDS011;4030;52.362;9.206;2022-10-31T01:27:34;6.47;;;4.80;;
7969;SDS011;4030;52.362;9.206;2022-10-31T01:30:00;6.28;;;4.85;;
7969;SDS011;4030;52.362;9.206;2022-10-31T01:32:26;6.65;;;4.90;;
7969;SDS011;4030;52.362;9.206;2022-10-31T01:34:53;5.45;;;4.65;;
7969;SDS011;4030;52.362;9.206;2022-10-31T01:37:19;6.95;;;5.03;;
7969;SDS011;4030;52.362;9.206;2022-10-31T01:39:47;6.82;;;4.95;;
7969;SDS011;4030;52.362;9.206;2022-10-31T01:42:20;8.02;;;5.10;;
7969;SDS011;4030;52.362;9.206;2022-10-31T01:44:49;8.50;;;5.43;;
7969;SDS011;4030;52.362;9.206;2022-10-31T01:47:36;7.43;;;5.57;;
7969;SDS011;4030;52.362;9.206;2022-10-31T01:50:13;7.00;;;5.22;;
7969;SDS011;4030;52.362;9.206;2022-10-31T01:52:51;7.95;;;5.32;;
7969;SDS011;4030;52.362;9.206;2022-10-31T01:55:22;6.00;;;5.03;;
7969;SDS011;4030;52.362;9.206;2022-10-31T01:58:02;9.20;;;5.65;;
7969;SDS011;4030;52.362;9.206;2022-10-31T02:00:33;7.07;;;5.32;;
7969;SDS011;4030;52.362;9.206;2022-10-31T02:02:59;8.45;;;5.70;;
7969;SDS011;4030;52.362;9.206;2022-10-31T02:05:26;6.68;;;5.45;;
7969;SDS011;4030;52.362;9.206;2022-10-31T02:10:38;7.25;;;5.78;;
7969;SDS011;4030;52.362;9.206;2022-10-31T02:13:07;7.70;;;5.85;;
7969;SDS011;4030;52.362;9.206;2022-10-31T02:15:34;8.35;;;6.35;;
7969;SDS011;4030;52.362;9.206;2022-10-31T02:18:01;7.93;;;5.40;;
7969;SDS011;4030;52.362;9.206;2022-10-31T02:20:38;8.45;;;5.65;;
7969;SDS011;4030;52.362;9.206;2022-10-31T02:23:28;8.10;;;5.75;;
7969;SDS011;4030;52.362;9.206;2022-10-31T02:29:19;7.28;;;5.40;;
7969;SDS011;4030;52.362;9.206;2022-10-31T02:35:10;8.63;;;5.40;;
7969;SDS011;4030;52.362;9.206;2022-10-31T02:46:22;6.80;;;5.18;;
7969;SDS011;4030;52.362;9.206;2022-10-31T02:49:18;7.65;;;5.75;;
7969;SDS011;4030;52.362;9.206;2022-10-31T02:51:54;7.80;;;5.82;;
7969;SDS011;4030;52.362;9.206;2022-10-31T02:54:23;9.77;;;6.10;;
7969;SDS011;4030;52.362;9.206;2022-10-31T02:56:56;8.80;;;5.60;;
7969;SDS011;4030;52.362;9.206;2022-10-31T02:59:29;8.35;;;5.78;;
7969;SDS011;4030;52.362;9.206;2022-10-31T03:11:00;7.65;;;5.72;;
7969;SDS011;4030;52.362;9.206;2022-10-31T03:13:41;8.82;;;5.57;;
7969;SDS011;4030;52.362;9.206;2022-10-31T03:16:15;7.25;;;5.38;;
7969;SDS011;4030;52.362;9.206;2022-10-31T03:18:55;7.32;;;5.05;;
7969;SDS011;4030;52.362;9.206;2022-10-31T03:21:30;7.32;;;5.38;;
7969;SDS011;4030;52.362;9.206;2022-10-31T03:24:08;7.05;;;5.45;;
7969;SDS011;4030;52.362;9.206;2022-10-31T03:26:37;7.22;;;5.60;;
7969;SDS011;4030;52.362;9.206;2022-10-31T03:29:08;7.05;;;5.88;;
7969;SDS011;4030;52.362;9.206;2022-10-31T03:32:02;8.07;;;5.90;;
7969;SDS011;4030;52.362;9.206;2022-10-31T03:34:34;7.32;;;5.35;;
7969;SDS011;4030;52.362;9.206;2022-10-31T03:37:03;7.05;;;5.70;;
7969;SDS011;4030;52.362;9.206;2022-10-31T03:39:32;8.38;;;5.55;;
7969;SDS011;4030;52.362;9.206;2022-10-31T03:42:00;7.30;;;5.63;;
7969;SDS011;4030;52.362;9.206;2022-10-31T03:44:32;7.72;;;5.65;;
7969;SDS011;4030;52.362;9.206;2022-10-31T03:46:59;6.55;;;5.50;;
7969;SDS011;4030;52.362;9.206;2022-10-31T03:49:27;6.57;;;5.47;;
7969;SDS011;4030;52.362;9.206;2022-10-31T03:54:56;6.72;;;5.18;;
7969;SDS011;4030;52.362;9.206;2022-10-31T04:00:50;6.97;;;4.85;;
7969;SDS011;4030;52.362;9.206;2022-10-31T04:03:19;8.45;;;5.40;;
7969;SDS011;4030;52.362;9.206;2022-10-31T04:05:51;5.97;;;4.93;;
7969;SDS011;4030;52.362;9.206;2022-10-31T04:08:21;7.72;;;5.05;;
7969;SDS011;4030;52.362;9.206;2022-10-31T04:10:52;6.13;;;4.95;;
7969;SDS011;4030;52.362;9.206;2022-10-31T04:13:23;6.03;;;5.10;;
7969;SDS011;4030;52.362;9.206;2022-10-31T04:15:53;8.43;;;4.93;;
7969;SDS011;4030;52.362;9.206;2022-10-31T04:18:22;5.82;;;5.03;;
7969;SDS011;4030;52.362;9.206;2022-10-31T04:20:49;7.18;;;4.97;;
7969;SDS011;4030;52.362;9.206;2022-10-31T04:23:26;6.57;;;4.85;;
7969;SDS011;4030;52.362;9.206;2022-10-31T04:25:52;6.55;;;5.03;;
7969;SDS011;4030;52.362;9.206;2022-10-31T04:28:19;7.72;;;5.00;;
7969;SDS011;4030;52.362;9.206;2022-10-31T04:30:45;6.75;;;5.22;;
7969;SDS011;4030;52.362;9.206;2022-10-31T04:33:11;6.03;;;4.90;;
7969;SDS011;4030;52.362;9.206;2022-10-31T04:35:37;6.55;;;5.10;;
7969;SDS011;4030;52.362;9.206;2022-10-31T04:38:03;8.05;;;5.05;;
7969;SDS011;4030;52.362;9.206;2022-10-31T04:40:29;7.78;;;5.20;;
7969;SDS011;4030;52.362;9.206;2022-10-31T04:42:55;6.75;;;4.50;;
7969;SDS011;4030;52.362;9.206;2022-10-31T04:45:21;6.13;;;5.13;;
7969;SDS011;4030;52.362;9.206;2022-10-31T04:47:47;5.97;;;4.70;;
7969;SDS011;4030;52.362;9.206;2022-10-31T04:50:13;5.50;;;4.35;;
7969;SDS011;4030;52.362;9.206;2022-10-31T04:52:40;7.07;;;4.90;;
7969;SDS011;4030;52.362;9.206;2022-10-31T04:55:09;5.82;;;4.82;;
7969;SDS011;4030;52.362;9.206;2022-10-31T05:00:12;5.18;;;4.50;;
7969;SDS011;4030;52.362;9.206;2022-10-31T05:02:42;5.22;;;4.60;;
7969;SDS011;4030;52.362;9.206;2022-10-31T05:05:19;5.93;;;4.40;;
7969;SDS011;4030;52.362;9.206;2022-10-31T05:07:48;5.63;;;4.18;;
7969;SDS011;4030;52.362;9.206;2022-10-31T05:10:16;6.28;;;4.63;;
7969;SDS011;4030;52.362;9.206;2022-10-31T05:12:51;6.38;;;4.80;;
7969;SDS011;4030;52.362;9.206;2022-10-31T05:15:20;4.63;;;4.05;;
7969;SDS011;4030;52.362;9.206;2022-10-31T05:17:48;6.70;;;4.00;;
7969;SDS011;4030;52.362;9.206;2022-10-31T05:20:15;6.03;;;4.10;;
7969;SDS011;4030;52.362;9.206;2022-10-31T05:22:45;4.78;;;3.97;;
7969;SDS011;4030;52.362;9.206;2022-10-31T05:25:14;4.30;;;3.63;;
7969;SDS011;4030;52.362;9.206;2022-10-31T05:27:41;4.63;;;3.55;;
7969;SDS011;4030;52.362;9.206;2022-10-31T05:30:08;4.63;;;3.40;;
7969;SDS011;4030;52.362;9.206;2022-10-31T05:32:37;4.63;;;3.50;;
7969;SDS011;4030;52.362;9.206;2022-10-31T05:35:04;5.18;;;3.60;;
7969;SDS011;4030;52.362;9.206;2022-10-31T05:37:33;4.53;;;3.25;;
7969;SDS011;4030;52.362;9.206;2022-10-31T05:40:02;4.68;;;3.45;;
7969;SDS011;4030;52.362;9.206;2022-10-31T05:42:30;4.22;;;3.30;;
7969;SDS011;4030;52.362;9.206;2022-10-31T05:44:55;3.60;;;3.15;;
7969;SDS011;4030;52.362;9.206;2022-10-31T05:47:21;3.80;;;3.22;;
7969;SDS011;4030;52.362;9.206;2022-10-31T05:49:47;3.78;;;2.80;;
7969;SDS011;4030;52.362;9.206;2022-10-31T05:52:13;4.32;;;3.30;;
7969;SDS011;4030;52.362;9.206;2022-10-31T05:54:39;5.35;;;3.22;;
7969;SDS011;4030;52.362;9.206;2022-10-31T05:57:05;4.82;;;3.22;;
7969;SDS011;4030;52.362;9.206;2022-10-31T05:59:31;5.43;;;3.05;;
7969;SDS011;4030;52.362;9.206;2022-10-31T06:01:57;3.22;;;2.83;;
7969;SDS011;4030;52.362;9.206;2022-10-31T06:04:23;3.58;;;3.20;;
7969;SDS011;4030;52.362;9.206;2022-10-31T06:06:49;3.20;;;2.90;;
7969;SDS011;4030;52.362;9.206;2022-10-31T06:09:15;3.30;;;2.92;;
7969;SDS011;4030;52.362;9.206;2022-10-31T06:11:41;3.28;;;2.97;;
7969;SDS011;4030;52.362;9.206;2022-10-31T06:14:07;4.40;;;3.00;;
7969;SDS011;4030;52.362;9.206;2022-10-31T06:16:33;3.70;;;3.20;;
7969;SDS011;4030;52.362;9.206;2022-10-31T06:18:59;3.53;;;3.13;;
7969;SDS011;4030;52.362;9.206;2022-10-31T06:21:26;4.18;;;2.75;;
7969;SDS011;4030;52.362;9.206;2022-10-31T06:23:52;4.20;;;3.20;;
7969;SDS011;4030;52.362;9.206;2022-10-31T06:26:18;5.60;;;3.50;;
7969;SDS011;4030;52.362;9.206;2022-10-31T06:28:44;5.47;;;3.38;;
7969;SDS011;4030;52.362;9.206;2022-10-31T06:31:10;4.65;;;3.90;;
7969;SDS011;4030;52.362;9.206;2022-10-31T06:33:36;5.20;;;3.92;;
7969;SDS011;4030;52.362;9.206;2022-10-31T06:36:02;5.38;;;4.05;;
7969;SDS011;4030;52.362;9.206;2022-10-31T06:38:28;4.78;;;4.25;;
7969;SDS011;4030;52.362;9.206;2022-10-31T06:40:54;5.22;;;4.30;;
7969;SDS011;4030;52.362;9.206;2022-10-31T06:43:21;6.32;;;4.00;;
7969;SDS011;4030;52.362;9.206;2022-10-31T06:45:47;4.65;;;4.00;;
7969;SDS011;4030;52.362;9.206;2022-10-31T06:48:12;5.43;;;4.65;;
7969;SDS011;4030;52.362;9.206;2022-10-31T06:50:38;5.03;;;4.03;;
7969;SDS011;4030;52.362;9.206;2022-10-31T06:53:04;4.88;;;4.00;;
7969;SDS011;4030;52.362;9.206;2022-10-31T06:55:31;6.95;;;4.32;;
7969;SDS011;4030;52.362;9.206;2022-10-31T06:58:00;4.95;;;4.28;;
7969;SDS011;4030;52.362;9.206;2022-10-31T07:00:27;5.40;;;4.43;;
7969;SDS011;4030;52.362;9.206;2022-10-31T07:05:24;5.53;;;4.05;;
7969;SDS011;4030;52.362;9.206;2022-10-31T07:07:51;4.22;;;3.80;;
7969;SDS011;4030;52.362;9.206;2022-10-31T07:10:19;4.72;;;3.90;;
7969;SDS011;4030;52.362;9.206;2022-10-31T07:12:45;4.28;;;3.88;;
7969;SDS011;4030;52.362;9.206;2022-10-31T07:15:11;4.00;;;3.60;;
7969;SDS011;4030;52.362;9.206;2022-10-31T07:17:37;4.28;;;3.80;;
7969;SDS011;4030;52.362;9.206;2022-10-31T07:20:03;4.22;;;3.80;;
7969;SDS011;4030;52.362;9.206;2022-10-31T07:22:36;4.10;;;3.70;;
7969;SDS011;4030;52.362;9.206;2022-10-31T07:25:02;5.45;;;3.67;;
7969;SDS011;4030;52.362;9.206;2022-10-31T07:27:34;3.60;;;3.20;;
7969;SDS011;4030;52.362;9.206;2022-10-31T07:30:04;3.65;;;3.35;;
7969;SDS011;4030;52.362;9.206;2022-10-31T07:32:44;3.78;;;3.22;;
7969;SDS011;4030;52.362;9.206;2022-10-31T07:35:13;3.88;;;3.33;;
7969;SDS011;4030;52.362;9.206;2022-10-31T07:37:41;4.05;;;3.65;;
7969;SDS011;4030;52.362;9.206;2022-10-31T07:40:08;4.22;;;3.30;;
7969;SDS011;4030;52.362;9.206;2022-10-31T07:42:38;4.25;;;3.63;;
7969;SDS011;4030;52.362;9.206;2022-10-31T07:45:07;4.00;;;3.50;;
7969;SDS011;4030;52.362;9.206;2022-10-31T07:50:05;3.70;;;3.40;;
7969;SDS011;4030;52.362;9.206;2022-10-31T07:52:32;4.15;;;3.15;;
7969;SDS011;4030;52.362;9.206;2022-10-31T07:54:58;3.83;;;3.20;;
7969;SDS011;4030;52.362;9.206;2022-10-31T07:57:24;3.55;;;3.17;;
7969;SDS011;4030;52.362;9.206;2022-10-31T07:59:50;4.40;;;3.05;;
7969;SDS011;4030;52.362;9.206;2022-10-31T08:02:16;3.75;;;3.35;;
7969;SDS011;4030;52.362;9.206;2022-10-31T08:04:42;3.75;;;3.05;;
7969;SDS011;4030;52.362;9.206;2022-10-31T08:07:08;3.30;;;3.00;;
7969;SDS011;4030;52.362;9.206;2022-10-31T08:09:34;3.00;;;2.70;;
7969;SDS011;4030;52.362;9.206;2022-10-31T08:12:00;3.45;;;3.15;;
7969;SDS011;4030;52.362;9.206;2022-10-31T08:14:27;4.22;;;3.00;;
7969;SDS011;4030;52.362;9.206;2022-10-31T08:16:53;3.28;;;2.83;;
7969;SDS011;4030;52.362;9.206;2022-10-31T08:19:19;3.03;;;2.67;;
7969;SDS011;4030;52.362;9.206;2022-10-31T08:21:45;3.03;;;2.72;;
7969;SDS011;4030;52.362;9.206;2022-10-31T08:24:11;2.83;;;2.53;;
7969;SDS011;4030;52.362;9.206;2022-10-31T08:26:37;2.90;;;2.60;;
7969;SDS011;4030;52.362;9.206;2022-10-31T08:29:03;2.33;;;2.13;;
7969;SDS011;4030;52.362;9.206;2022-10-31T08:31:29;2.70;;;2.50;;
7969;SDS011;4030;52.362;9.206;2022-10-31T08:33:55;2.45;;;2.25;;
7969;SDS011;4030;52.362;9.206;2022-10-31T08:36:21;2.70;;;2.50;;
7969;SDS011;4030;52.362;9.206;2022-10-31T08:38:47;2.90;;;2.53;;
7969;SDS011;4030;52.362;9.206;2022-10-31T08:41:13;2.60;;;2.40;;
7969;SDS011;4030;52.362;9.206;2022-10-31T08:43:39;3.55;;;2.70;;
7969;SDS011;4030;52.362;9.206;2022-10-31T08:46:05;2.70;;;2.20;;
7969;SDS011;4030;52.362;9.206;2022-10-31T08:48:31;3.38;;;2.65;;
7969;SDS011;4030;52.362;9.206;2022-10-31T08:50:58;3.70;;;2.60;;
7969;SDS011;4030;52.362;9.206;2022-10-31T08:53:24;2.97;;;2.25;;
7969;SDS011;4030;52.362;9.206;2022-10-31T08:55:53;3.10;;;2.80;;
7969;SDS011;4030;52.362;9.206;2022-10-31T08:58:21;3.08;;;2.60;;
7969;SDS011;4030;52.362;9.206;2022-10-31T09:00:49;4.70;;;2.90;;
7969;SDS011;4030;52.362;9.206;2022-10-31T09:03:22;3.60;;;2.80;;
7969;SDS011;4030;52.362;9.206;2022-10-31T09:05:50;3.50;;;2.80;;
7969;SDS011;4030;52.362;9.206;2022-10-31T09:08:19;3.30;;;2.95;;
7969;SDS011;4030;52.362;9.206;2022-10-31T09:10:45;4.47;;;2.58;;
7969;SDS011;4030;52.362;9.206;2022-10-31T09:13:15;4.13;;;2.88;;
7969;SDS011;4030;52.362;9.206;2022-10-31T09:15:43;3.50;;;2.90;;
7969;SDS011;4030;52.362;9.206;2022-10-31T09:18:12;4.10;;;2.88;;
7969;SDS011;4030;52.362;9.206;2022-10-31T09:20:40;5.57;;;3.00;;
7969;SDS011;4030;52.362;9.206;2022-10-31T09:25:39;4.03;;;2.97;;
7969;SDS011;4030;52.362;9.206;2022-10-31T09:28:06;3.80;;;2.90;;
7969;SDS011;4030;52.362;9.206;2022-10-31T09:30:35;5.13;;;3.17;;
7969;SDS011;4030;52.362;9.206;2022-10-31T09:33:03;4.35;;;2.85;;
7969;SDS011;4030;52.362;9.206;2022-10-31T09:35:31;4.68;;;3.10;;
7969;SDS011;4030;52.362;9.206;2022-10-31T09:37:58;5.07;;;3.50;;
7969;SDS011;4030;52.362;9.206;2022-10-31T09:40:39;4.05;;;3.40;;
7969;SDS011;4030;52.362;9.206;2022-10-31T09:52:10;5.28;;;3.13;;
7969;SDS011;4030;52.362;9.206;2022-10-31T09:55:04;4.00;;;3.20;;
7969;SDS011;4030;52.362;9.206;2022-10-31T09:57:40;4.10;;;3.17;;
7969;SDS011;4030;52.362;9.206;2022-10-31T10:00:14;4.57;;;3.13;;
7969;SDS011;4030;52.362;9.206;2022-10-31T10:02:46;4.72;;;2.97;;
7969;SDS011;4030;52.362;9.206;2022-10-31T10:08:29;5.50;;;3.10;;
7969;SDS011;4030;52.362;9.206;2022-10-31T10:16:51;6.32;;;3.40;;
7969;SDS011;4030;52.362;9.206;2022-10-31T10:20:10;5.30;;;3.20;;
7969;SDS011;4030;52.362;9.206;2022-10-31T10:25:33;4.45;;;3.28;;
7969;SDS011;4030;52.362;9.206;2022-10-31T10:28:21;4.68;;;3.72;;
7969;SDS011;4030;52.362;9.206;2022-10-31T10:31:01;6.32;;;3.78;;
7969;SDS011;4030;52.362;9.206;2022-10-31T10:36:36;6.00;;;3.45;;
7969;SDS011;4030;52.362;9.206;2022-10-31T10:39:23;4.90;;;3.30;;
7969;SDS011;4030;52.362;9.206;2022-10-31T10:42:04;5.35;;;3.50;;
7969;SDS011;4030;52.362;9.206;2022-10-31T10:44:58;6.47;;;3.50;;
7969;SDS011;4030;52.362;9.206;2022-10-31T10:47:46;5.38;;;3.17;;
7969;SDS011;4030;52.362;9.206;2022-10-31T10:50:27;5.43;;;3.17;;
7969;SDS011;4030;52.362;9.206;2022-10-31T10:59:00;7.00;;;3.70;;
7969;SDS011;4030;52.362;9.206;2022-10-31T11:01:27;4.95;;;3.00;;
7969;SDS011;4030;52.362;9.206;2022-10-31T11:03:53;5.30;;;3.15;;
7969;SDS011;4030;52.362;9.206;2022-10-31T11:06:20;5.15;;;3.17;;
7969;SDS011;4030;52.362;9.206;2022-10-31T11:08:50;4.63;;;2.90;;
7969;SDS011;4030;52.362;9.206;2022-10-31T11:13:52;3.63;;;2.80;;
7969;SDS011;4030;52.362;9.206;2022-10-31T11:16:42;5.50;;;2.95;;
7969;SDS011;4030;52.362;9.206;2022-10-31T11:19:22;6.63;;;2.83;;
7969;SDS011;4030;52.362;9.206;2022-10-31T11:21:51;4.55;;;3.13;;
7969;SDS011;4030;52.362;9.206;2022-10-31T11:24:19;6.65;;;3.00;;
7969;SDS011;4030;52.362;9.206;2022-10-31T11:26:51;6.00;;;3.05;;
7969;SDS011;4030;52.362;9.206;2022-10-31T11:29:20;4.80;;;2.58;;
7969;SDS011;4030;52.362;9.206;2022-10-31T11:31:50;5.82;;;3.17;;
7969;SDS011;4030;52.362;9.206;2022-10-31T11:34:22;4.53;;;3.05;;
7969;SDS011;4030;52.362;9.206;2022-10-31T11:37:13;3.95;;;2.90;;
7969;SDS011;4030;52.362;9.206;2022-10-31T11:39:54;4.38;;;2.70;;
7969;SDS011;4030;52.362;9.206;2022-10-31T11:42:25;4.10;;;2.70;;
7969;SDS011;4030;52.362;9.206;2022-10-31T11:45:01;4.43;;;2.88;;
7969;SDS011;4030;52.362;9.206;2022-10-31T11:47:40;4.80;;;3.03;;
7969;SDS011;4030;52.362;9.206;2022-10-31T11:50:11;4.05;;;2.42;;
7969;SDS011;4030;52.362;9.206;2022-10-31T11:52:59;3.70;;;2.47;;
7969;SDS011;4030;52.362;9.206;2022-10-31T11:55:33;6.78;;;2.65;;
7969;SDS011;4030;52.362;9.206;2022-10-31T11:58:02;6.70;;;2.58;;
7969;SDS011;4030;52.362;9.206;2022-10-31T12:00:34;4.35;;;2.55;;
7969;SDS011;4030;52.362;9.206;2022-10-31T12:05:48;3.50;;;2.20;;
7969;SDS011;4030;52.362;9.206;2022-10-31T12:08:40;4.72;;;2.55;;
7969;SDS011;4030;52.362;9.206;2022-10-31T12:11:11;6.40;;;2.63;;
7969;SDS011;4030;52.362;9.206;2022-10-31T12:16:42;4.93;;;3.00;;
7969;SDS011;4030;52.362;9.206;2022-10-31T12:24:56;5.22;;;2.47;;
7969;SDS011;4030;52.362;9.206;2022-10-31T12:30:28;3.70;;;2.50;;
7969;SDS011;4030;52.362;9.206;2022-10-31T12:33:34;4.47;;;2.42;;
7969;SDS011;4030;52.362;9.206;2022-10-31T12:58:26;4.53;;;2.58;;
7969;SDS011;4030;52.362;9.206;2022-10-31T13:01:18;5.85;;;2.58;;
7969;SDS011;4030;52.362;9.206;2022-10-31T13:06:27;5.13;;;2.65;;
7969;SDS011;4030;52.362;9.206;2022-10-31T13:09:02;4.97;;;3.13;;
7969;SDS011;4030;52.362;9.206;2022-10-31T13:11:38;6.97;;;3.20;;
7969;SDS011;4030;52.362;9.206;2022-10-31T13:14:23;6.30;;;2.88;;
7969;SDS011;4030;52.362;9.206;2022-10-31T13:17:03;5.65;;;2.88;;
7969;SDS011;4030;52.362;9.206;2022-10-31T13:19:31;5.43;;;3.10;;
7969;SDS011;4030;52.362;9.206;2022-10-31T13:22:07;7.13;;;3.30;;
7969;SDS011;4030;52.362;9.206;2022-10-31T13:32:51;5.70;;;3.28;;
7969;SDS011;4030;52.362;9.206;2022-10-31T13:36:03;5.72;;;3.08;;
7969;SDS011;4030;52.362;9.206;2022-10-31T13:41:12;5.00;;;3.05;;
7969;SDS011;4030;52.362;9.206;2022-10-31T13:46:44;4.32;;;2.97;;
7969;SDS011;4030;52.362;9.206;2022-10-31T13:52:11;6.93;;;3.08;;
7969;SDS011;4030;52.362;9.206;2022-10-31T13:54:42;6.13;;;3.10;;
7969;SDS011;4030;52.362;9.206;2022-10-31T13:57:18;6.00;;;3.03;;
7969;SDS011;4030;52.362;9.206;2022-10-31T14:00:00;5.47;;;2.85;;
7969;SDS011;4030;52.362;9.206;2022-10-31T14:02:45;4.63;;;2.85;;
7969;SDS011;4030;52.362;9.206;2022-10-31T14:05:25;6.60;;;3.55;;
7969;SDS011;4030;52.362;9.206;2022-10-31T14:07:54;4.80;;;3.05;;
7969;SDS011;4030;52.362;9.206;2022-10-31T14:12:51;6.10;;;3.25;;
7969;SDS011;4030;52.362;9.206;2022-10-31T14:15:33;4.78;;;3.00;;
7969;SDS011;4030;52.362;9.206;2022-10-31T14:18:04;5.32;;;3.20;;
7969;SDS011;4030;52.362;9.206;2022-10-31T14:20:41;6.20;;;3.47;;
7969;SDS011;4030;52.362;9.206;2022-10-31T14:31:44;8.13;;;5.00;;
7969;SDS011;4030;52.362;9.206;2022-10-31T14:34:29;7.10;;;5.05;;
7969;SDS011;4030;52.362;9.206;2022-10-31T14:46:01;6.47;;;5.07;;
7969;SDS011;4030;52.362;9.206;2022-10-31T14:51:18;6.78;;;4.60;;
7969;SDS011;4030;52.362;9.206;2022-10-31T14:53:56;7.82;;;4.35;;
7969;SDS011;4030;52.362;9.206;2022-10-31T14:56:29;5.80;;;4.70;;
7969;SDS011;4030;52.362;9.206;2022-10-31T14:58:59;5.90;;;4.13;;
7969;SDS011;4030;52.362;9.206;2022-10-31T15:01:30;5.60;;;4.30;;
7969;SDS011;4030;52.362;9.206;2022-10-31T15:04:16;7.72;;;4.15;;
7969;SDS011;4030;52.362;9.206;2022-10-31T15:07:16;8.20;;;4.45;;
7969;SDS011;4030;52.362;9.206;2022-10-31T15:09:55;7.25;;;3.67;;
7969;SDS011;4030;52.362;9.206;2022-10-31T15:12:27;10.13;;;5.47;;
7969;SDS011;4030;52.362;9.206;2022-10-31T15:14:56;8.27;;;6.88;;
7969;SDS011;4030;52.362;9.206;2022-10-31T15:17:23;9.13;;;6.68;;
7969;SDS011;4030;52.362;9.206;2022-10-31T15:19:50;7.75;;;6.82;;
7969;SDS011;4030;52.362;9.206;2022-10-31T15:22:18;10.38;;;8.15;;
7969;SDS011;4030;52.362;9.206;2022-10-31T15:24:48;10.38;;;7.22;;
7969;SDS011;4030;52.362;9.206;2022-10-31T15:27:21;8.20;;;6.97;;
7969;SDS011;4030;52.362;9.206;2022-10-31T15:29:52;7.78;;;6.68;;
7969;SDS011;4030;52.362;9.206;2022-10-31T15:32:21;7.95;;;6.80;;
7969;SDS011;4030;52.362;9.206;2022-10-31T15:34:50;8.20;;;6.53;;
7969;SDS011;4030;52.362;9.206;2022-10-31T15:37:21;8.32;;;5.90;;
7969;SDS011;4030;52.362;9.206;2022-10-31T15:39:49;6.55;;;5.82;;
7969;SDS011;4030;52.362;9.206;2022-10-31T15:45:02;6.47;;;5.47;;
7969;SDS011;4030;52.362;9.206;2022-10-31T15:47:45;8.35;;;5.45;;
7969;SDS011;4030;52.362;9.206;2022-10-31T15:50:27;7.40;;;5.10;;
7969;SDS011;4030;52.362;9.206;2022-10-31T15:52:57;7.47;;;5.63;;
7969;SDS011;4030;52.362;9.206;2022-10-31T15:55:25;7.15;;;5.45;;
7969;SDS011;4030;52.362;9.206;2022-10-31T15:58:09;7.72;;;4.88;;
7969;SDS011;4030;52.362;9.206;2022-10-31T16:00:37;7.47;;;5.28;;
7969;SDS011;4030;52.362;9.206;2022-10-31T16:03:08;8.10;;;5.50;;
7969;SDS011;4030;52.362;9.206;2022-10-31T16:05:48;7.18;;;4.82;;
7969;SDS011;4030;52.362;9.206;2022-10-31T16:08:24;5.57;;;4.25;;
7969;SDS011;4030;52.362;9.206;2022-10-31T16:10:56;8.40;;;4.97;;
7969;SDS011;4030;52.362;9.206;2022-10-31T16:13:34;7.07;;;5.18;;
7969;SDS011;4030;52.362;9.206;2022-10-31T16:16:13;6.78;;;4.68;;
7969;SDS011;4030;52.362;9.206;2022-10-31T16:18:41;6.70;;;4.80;;
7969;SDS011;4030;52.362;9.206;2022-10-31T16:21:08;5.97;;;4.30;;
7969;SDS011;4030;52.362;9.206;2022-10-31T16:23:35;8.70;;;4.85;;
7969;SDS011;4030;52.362;9.206;2022-10-31T16:26:07;7.22;;;4.30;;
7969;SDS011;4030;52.362;9.206;2022-10-31T16:28:33;7.13;;;4.55;;
7969;SDS011;4030;52.362;9.206;2022-10-31T16:31:00;8.00;;;4.90;;
7969;SDS011;4030;52.362;9.206;2022-10-31T16:33:37;6.75;;;4.85;;
7969;SDS011;4030;52.362;9.206;2022-10-31T16:38:56;5.82;;;5.00;;
7969;SDS011;4030;52.362;9.206;2022-10-31T16:41:25;8.20;;;4.95;;
7969;SDS011;4030;52.362;9.206;2022-10-31T16:43:51;8.20;;;5.40;;
7969;SDS011;4030;52.362;9.206;2022-10-31T16:46:24;9.35;;;5.32;;
7969;SDS011;4030;52.362;9.206;2022-10-31T16:48:52;9.38;;;5.63;;
7969;SDS011;4030;52.362;9.206;2022-10-31T16:51:18;7.55;;;5.32;;
7969;SDS011;4030;52.362;9.206;2022-10-31T16:53:45;7.85;;;6.10;;
7969;SDS011;4030;52.362;9.206;2022-10-31T16:56:14;7.90;;;5.55;;
7969;SDS011;4030;52.362;9.206;2022-10-31T16:58:48;7.53;;;6.00;;
7969;SDS011;4030;52.362;9.206;2022-10-31T17:01:14;7.82;;;6.30;;
7969;SDS011;4030;52.362;9.206;2022-10-31T17:03:39;8.43;;;6.82;;
7969;SDS011;4030;52.362;9.206;2022-10-31T17:06:05;9.45;;;7.65;;
7969;SDS011;4030;52.362;9.206;2022-10-31T17:08:33;10.10;;;7.28;;
7969;SDS011;4030;52.362;9.206;2022-10-31T17:10:59;10.02;;;6.80;;
7969;SDS011;4030;52.362;9.206;2022-10-31T17:13:26;9.75;;;7.07;;
7969;SDS011;4030;52.362;9.206;2022-10-31T17:15:55;9.18;;;7.10;;
7969;SDS011;4030;52.362;9.206;2022-10-31T17:18:23;8.98;;;7.18;;
7969;SDS011;4030;52.362;9.206;2022-10-31T17:20:50;9.57;;;6.88;;
7969;SDS011;4030;52.362;9.206;2022-10-31T17:23:24;9.07;;;7.30;;
7969;SDS011;4030;52.362;9.206;2022-10-31T17:25:50;9.48;;;6.93;;
7969;SDS011;4030;52.362;9.206;2022-10-31T17:28:16;8.57;;;7.18;;
7969;SDS011;4030;52.362;9.206;2022-10-31T17:30:42;10.50;;;6.78;;
7969;SDS011;4030;52.362;9.206;2022-10-31T17:33:11;9.27;;;6.97;;
7969;SDS011;4030;52.362;9.206;2022-10-31T17:35:39;9.35;;;6.60;;
7969;SDS011;4030;52.362;9.206;2022-10-31T17:38:08;8.68;;;6.60;;
7969;SDS011;4030;52.362;9.206;2022-10-31T17:40:36;8.77;;;6.72;;
7969;SDS011;4030;52.362;9.206;2022-10-31T17:43:03;9.75;;;6.82;;
7969;SDS011;4030;52.362;9.206;2022-10-31T17:45:29;8.27;;;6.38;;
7969;SDS011;4030;52.362;9.206;2022-10-31T17:47:55;10.10;;;7.28;;
7969;SDS011;4030;52.362;9.206;2022-10-31T17:50:22;8.95;;;7.00;;
7969;SDS011;4030;52.362;9.206;2022-10-31T17:52:50;7.85;;;6.88;;
7969;SDS011;4030;52.362;9.206;2022-10-31T17:55:17;9.55;;;6.55;;
7969;SDS011;4030;52.362;9.206;2022-10-31T17:57:43;8.68;;;6.68;;
7969;SDS011;4030;52.362;9.206;2022-10-31T18:00:10;10.43;;;6.82;;
7969;SDS011;4030;52.362;9.206;2022-10-31T18:02:40;7.18;;;6.05;;
7969;SDS011;4030;52.362;9.206;2022-10-31T18:05:06;6.93;;;5.75;;
7969;SDS011;4030;52.362;9.206;2022-10-31T18:07:32;8.82;;;5.80;;
7969;SDS011;4030;52.362;9.206;2022-10-31T18:09:58;8.10;;;6.20;;
7969;SDS011;4030;52.362;9.206;2022-10-31T18:12:25;7.90;;;6.15;;
7969;SDS011;4030;52.362;9.206;2022-10-31T18:14:51;8.40;;;5.80;;
7969;SDS011;4030;52.362;9.206;2022-10-31T18:17:18;7.43;;;6.07;;